Noroton Heights, Connecticut
Current Conditions -  °F | °C
As of 1:56 PM on Saturday 25 Oct 2014 (Local Time) from KHPN Reporting Station
Few Clouds Few Clouds  
Wind Chill: 18°   Ceiling: Unl
Heat Index: 18°   Visibility: 10mi
Dew Point:   Wind: 13mph
Humidity: 45%   Direction: 310°NW
Pressure: 29.71"   Gusts: NA
Location:  41.0804°N, 73.4823°W
Report Text: KHPN 251756Z 31011KT 10SM FEW065 18/06 A2971 RMK AO2 SLP061 T01780056 10183 20078 58035
Loading
Personal Weather Stations






























Interactive Weather Map
Tropical Storm Tracking
New forecast layout! Learn more

10-Day Weather Forecast

Advertisements
Track Severe Weather on mobile